Time;durP1;ratioP1;P1;durP2;ratioP2;P2;SDS_P1;SDS_P2;PMS_P1;PMS_P2;Temp;Humidity;BMP_temperature;BMP_pressure;BME280_temperature;BME280_humidity;BME280_pressure;Samples;Min_cycle;Max_cycle;Signal;HPM_P1;HPM_P2
2022/10/30 00:01:28;;;;;;;;;;;;;;;12.68;86.05;96781.63;4965963;28;19922;-79
2022/10/30 00:03:55;;;;;;;;;;;;;;;12.67;86.26;96777.28;4984479;28;19926;-79
2022/10/30 00:06:21;;;;;;;;;;;;;;;12.65;85.60;96789.69;4985135;28;19936;-79
2022/10/30 00:08:48;;;;;;;;;;;;;;;12.62;85.68;96787.56;4986944;28;19921;-79
2022/10/30 00:11:14;;;;;;;;;;;;;;;12.59;85.95;96786.31;4985504;28;19922;-78
2022/10/30 00:13:43;;;;;;;;;;;;;;;12.57;85.78;96783.06;4984136;28;19922;-79
2022/10/30 00:16:10;;;;;;;;;;;;;;;12.55;86.10;96793.53;4980229;28;20028;-78
2022/10/30 00:18:38;;;;;;;;;;;;;;;12.53;86.47;96788.38;4980323;28;19922;-79
2022/10/30 00:21:05;;;;;;;;;;;;;;;12.54;86.78;96783.72;4979115;28;19922;-79
2022/10/30 00:23:31;;;;;;;;;;;;;;;12.51;86.92;96782.41;4980779;28;19932;-78
2022/10/30 00:26:02;;;;;;;;;;;;;;;12.50;87.30;96782.75;4964745;28;19922;-79
2022/10/30 00:28:28;;;;;;;;;;;;;;;12.46;87.33;96784.50;4987664;28;19921;-79
2022/10/30 00:30:58;;;;;;;;;;;;;;;12.43;87.55;96779.69;5002575;28;20388;-79
2022/10/30 00:33:24;;;;;;;;;;;;;;;12.40;87.64;96778.41;4997284;28;19937;-79
2022/10/30 00:35:51;;;;;;;;;;;;;;;12.38;87.70;96782.59;4997121;28;19928;-79
2022/10/30 00:38:19;;;;;;;;;;;;;;;12.37;87.66;96778.22;4996828;28;19944;-79
2022/10/30 00:40:46;;;;;;;;;;;;;;;12.38;87.80;96767.00;4980301;28;20479;-79
2022/10/30 00:43:29;;;;;;;;;;;;;;;12.38;87.93;96768.94;4996521;28;19921;-78
2022/10/30 00:45:58;;;;;;;;;;;;;;;12.38;87.86;96768.94;4997286;28;19932;-79
2022/10/30 00:48:26;;;;;;;;;;;;;;;12.39;88.17;96773.25;4995986;28;19922;-79
2022/10/30 00:50:53;;;;;;;;;;;;;;;12.41;88.03;96773.72;4996460;28;19925;-78
2022/10/30 00:53:20;;;;;;;;;;;;;;;12.42;87.69;96775.34;4996440;28;19952;-79
2022/10/30 00:55:50;;;;;;;;;;;;;;;12.41;87.21;96766.34;4996890;28;19921;-78
2022/10/30 00:58:20;;;;;;;;;;;;;;;12.37;86.62;96761.84;4996603;28;19922;-78
2022/10/30 01:00:49;;;;;;;;;;;;;;;12.33;86.29;96764.41;4996360;28;19922;-79
2022/10/30 01:03:18;;;;;;;;;;;;;;;12.28;86.31;96765.38;4995600;28;19922;-79
2022/10/30 01:05:48;;;;;;;;;;;;;;;12.27;86.17;96761.03;4995883;28;19972;-79
2022/10/30 01:08:14;;;;;;;;;;;;;;;12.23;86.05;96762.78;4995216;28;20372;-79
2022/10/30 01:10:41;;;;;;;;;;;;;;;12.19;86.04;96767.28;4978946;28;19928;-79
2022/10/30 01:13:07;;;;;;;;;;;;;;;12.15;86.58;96760.03;4994597;28;19922;-79
2022/10/30 01:15:35;;;;;;;;;;;;;;;12.13;86.81;96770.47;4995439;28;20319;-79
2022/10/30 01:18:20;;;;;;;;;;;;;;;12.11;86.78;96762.63;4995090;28;20012;-78
2022/10/30 01:21:04;;;;;;;;;;;;;;;12.11;86.96;96754.44;4997023;28;20360;-78
2022/10/30 01:23:36;;;;;;;;;;;;;;;12.11;87.01;96761.78;4980745;28;19921;-79
2022/10/30 01:26:05;;;;;;;;;;;;;;;12.07;87.48;96758.91;4998280;28;19921;-79
2022/10/30 01:28:42;;;;;;;;;;;;;;;12.05;87.41;96755.66;5009947;28;19905;-79
2022/10/30 01:31:16;;;;;;;;;;;;;;;12.06;87.82;96756.47;5014173;28;19921;-78
2022/10/30 01:33:49;;;;;;;;;;;;;;;12.04;87.54;96754.06;5014493;28;19993;-79
2022/10/30 01:36:18;;;;;;;;;;;;;;;12.02;87.44;96754.41;5013353;28;19932;-78
2022/10/30 01:38:48;;;;;;;;;;;;;;;11.97;87.46;96749.09;5012827;28;19932;-78
2022/10/30 01:41:15;;;;;;;;;;;;;;;11.94;87.88;96751.63;5012180;28;19968;-78
2022/10/30 01:43:42;;;;;;;;;;;;;;;11.93;87.91;96759.00;4997603;28;19990;-78
2022/10/30 01:46:14;;;;;;;;;;;;;;;11.91;88.23;96755.00;4985961;28;19922;-79
2022/10/30 01:48:52;;;;;;;;;;;;;;;11.90;88.20;96750.66;4982995;28;19949;-78
2022/10/30 01:51:23;;;;;;;;;;;;;;;11.85;88.64;96753.53;4980617;28;19922;-79
2022/10/30 01:53:58;;;;;;;;;;;;;;;11.83;88.55;96753.03;4980669;28;19928;-78
2022/10/30 01:56:28;;;;;;;;;;;;;;;11.85;88.63;96756.25;4979439;28;19922;-78
2022/10/30 01:58:58;;;;;;;;;;;;;;;11.85;88.81;96745.34;4978962;28;20397;-78
2022/10/30 02:01:26;;;;;;;;;;;;;;;11.85;88.77;96748.06;4979404;28;19922;-79
2022/10/30 02:03:52;;;;;;;;;;;;;;;11.82;88.94;96741.31;4981493;28;19921;-79
2022/10/30 02:06:19;;;;;;;;;;;;;;;11.83;88.59;96748.38;4984543;28;19922;-78
2022/10/30 02:08:45;;;;;;;;;;;;;;;11.80;88.21;96754.47;4984331;28;19997;-78
2022/10/30 02:11:13;;;;;;;;;;;;;;;11.74;88.04;96753.81;4984247;28;20008;-78
2022/10/30 02:13:40;;;;;;;;;;;;;;;11.73;88.24;96754.09;4965312;29;19929;-79
2022/10/30 02:16:07;;;;;;;;;;;;;;;11.73;88.54;96765.81;4965957;29;19922;-78
2022/10/30 02:18:33;;;;;;;;;;;;;;;11.73;88.19;96763.09;4964657;29;19982;-79
2022/10/30 02:21:01;;;;;;;;;;;;;;;11.71;88.20;96761.81;4942959;29;19929;-79
2022/10/30 02:23:28;;;;;;;;;;;;;;;11.69;87.58;96764.84;4957196;29;19923;-78
2022/10/30 02:25:54;;;;;;;;;;;;;;;11.64;87.13;96759.53;4962159;29;19922;-80
2022/10/30 02:28:20;;;;;;;;;;;;;;;11.61;87.52;96756.63;4964044;29;19985;-78
2022/10/30 02:30:47;;;;;;;;;;;;;;;11.56;87.04;96760.28;4964821;29;20005;-79
2022/10/30 02:33:13;;;;;;;;;;;;;;;11.53;87.46;96760.91;4961006;29;20023;-78
2022/10/30 02:35:39;;;;;;;;;;;;;;;11.50;86.91;96761.56;4957387;28;19929;-81
2022/10/30 02:38:07;;;;;;;;;;;;;;;11.45;87.10;96767.16;4956344;29;19926;-81
2022/10/30 02:40:34;;;;;;;;;;;;;;;11.31;86.48;96774.59;4957231;29;20300;-78
2022/10/30 02:43:00;;;;;;;;;;;;;;;11.26;86.30;96766.56;4972449;28;19944;-78
2022/10/30 02:45:27;;;;;;;;;;;;;;;11.19;86.09;96767.00;4958542;28;20368;-79
2022/10/30 02:47:53;;;;;;;;;;;;;;;11.17;86.52;96764.59;4977569;28;19922;-79
2022/10/30 02:50:19;;;;;;;;;;;;;;;11.18;87.21;96766.19;4981443;28;20250;-79
2022/10/30 02:52:46;;;;;;;;;;;;;;;11.18;87.46;96760.75;4984657;28;19933;-80
2022/10/30 02:55:14;;;;;;;;;;;;;;;11.19;87.86;96756.91;4984224;28;19928;-79
2022/10/30 02:57:40;;;;;;;;;;;;;;;11.20;88.09;96760.44;4976865;28;19922;-79
2022/10/30 03:00:07;;;;;;;;;;;;;;;11.22;88.58;96758.19;4974059;28;20028;-79
2022/10/30 03:02:34;;;;;;;;;;;;;;;11.20;88.65;96757.69;4974890;28;19926;-78
2022/10/30 03:05:00;;;;;;;;;;;;;;;11.21;88.83;96764.75;4974668;28;19928;-78
2022/10/30 03:07:27;;;;;;;;;;;;;;;11.18;89.15;96755.28;4974397;28;19922;-78
2022/10/30 03:09:53;;;;;;;;;;;;;;;11.15;89.13;96755.91;4974968;28;20001;-79
2022/10/30 03:12:21;;;;;;;;;;;;;;;11.10;89.46;96764.22;4973991;28;19933;-78
2022/10/30 03:14:48;;;;;;;;;;;;;;;11.10;89.39;96758.75;4974559;28;19922;-79
2022/10/30 03:17:14;;;;;;;;;;;;;;;11.13;89.38;96758.16;4974133;28;19922;-78
2022/10/30 03:19:41;;;;;;;;;;;;;;;11.14;89.31;96762.47;4976119;28;19928;-80
2022/10/30 03:22:07;;;;;;;;;;;;;;;11.08;89.15;96763.72;4977020;28;19926;-78
2022/10/30 03:24:34;;;;;;;;;;;;;;;11.08;89.28;96763.72;4977541;28;19929;-79
2022/10/30 03:27:00;;;;;;;;;;;;;;;11.02;89.67;96762.25;4977484;28;19922;-79
2022/10/30 03:29:28;;;;;;;;;;;;;;;11.00;89.70;96759.00;4978216;28;20393;-79
2022/10/30 03:31:55;;;;;;;;;;;;;;;10.94;89.96;96752.09;4979063;28;19922;-79
2022/10/30 03:34:21;;;;;;;;;;;;;;;10.94;90.21;96754.81;4975730;28;19934;-77
2022/10/30 03:36:47;;;;;;;;;;;;;;;10.97;90.05;96752.28;4975053;28;19944;-78
2022/10/30 03:39:14;;;;;;;;;;;;;;;11.01;90.37;96759.81;4974350;28;20356;-76
2022/10/30 03:41:42;;;;;;;;;;;;;;;11.03;90.84;96747.50;4972482;28;19925;-78
2022/10/30 03:44:08;;;;;;;;;;;;;;;11.09;91.02;96748.97;4973582;28;19922;-78
2022/10/30 03:46:36;;;;;;;;;;;;;;;11.10;91.50;96736.97;4976068;28;19922;-78
2022/10/30 03:49:02;;;;;;;;;;;;;;;11.18;91.80;96738.94;4977553;28;19922;-78
2022/10/30 03:51:29;;;;;;;;;;;;;;;11.23;91.91;96738.00;4977964;28;19958;-78
2022/10/30 03:53:55;;;;;;;;;;;;;;;11.25;92.42;96738.50;4977680;28;20289;-77
2022/10/30 03:56:24;;;;;;;;;;;;;;;11.32;92.35;96743.50;4977151;28;19930;-77
2022/10/30 03:58:50;;;;;;;;;;;;;;;11.38;92.36;96731.31;4960133;28;20433;-78
2022/10/30 04:01:16;;;;;;;;;;;;;;;11.42;92.40;96740.50;4976538;28;19933;-78
2022/10/30 04:03:44;;;;;;;;;;;;;;;11.42;92.22;96740.50;4977618;28;20296;-78
2022/10/30 04:06:11;;;;;;;;;;;;;;;11.44;91.99;96741.00;4977144;28;20313;-78
2022/10/30 04:08:37;;;;;;;;;;;;;;;11.35;91.65;96737.41;4977382;28;19928;-78
2022/10/30 04:11:04;;;;;;;;;;;;;;;11.26;91.18;96739.28;4978594;28;19922;-78
2022/10/30 04:13:30;;;;;;;;;;;;;;;11.26;90.95;96742.00;4979272;28;19928;-78
2022/10/30 04:15:56;;;;;;;;;;;;;;;11.20;90.37;96739.41;4987977;28;19989;-79
2022/10/30 04:18:23;;;;;;;;;;;;;;;11.18;90.28;96740.88;4992586;28;19993;-79
2022/10/30 04:20:51;;;;;;;;;;;;;;;11.15;89.97;96742.28;4989412;28;19969;-78
2022/10/30 04:23:18;;;;;;;;;;;;;;;11.09;89.88;96740.81;4979699;28;19922;-79
2022/10/30 04:25:45;;;;;;;;;;;;;;;11.11;89.62;96745.94;4978498;28;19946;-78
2022/10/30 04:28:11;;;;;;;;;;;;;;;11.11;89.54;96749.47;4977562;28;19922;-78
2022/10/30 04:30:38;;;;;;;;;;;;;;;11.12;88.61;96751.09;4977824;28;19922;-77
2022/10/30 04:33:05;;;;;;;;;;;;;;;11.12;88.63;96745.66;4978522;28;20356;-78
2022/10/30 04:35:33;;;;;;;;;;;;;;;11.04;88.41;96743.66;4977552;28;20266;-78
2022/10/30 04:38:01;;;;;;;;;;;;;;;11.00;88.45;96742.66;4976852;28;19929;-78
2022/10/30 04:40:29;;;;;;;;;;;;;;;10.92;88.38;96737.97;4977435;28;20332;-78
2022/10/30 04:42:55;;;;;;;;;;;;;;;10.94;87.66;96739.25;4976407;28;19928;-80
2022/10/30 04:45:22;;;;;;;;;;;;;;;10.94;87.63;96733.00;4958527;28;19973;-78
2022/10/30 04:47:49;;;;;;;;;;;;;;;10.90;87.49;96740.19;4958281;28;19995;-78
2022/10/30 04:50:15;;;;;;;;;;;;;;;10.86;87.57;96733.78;4975492;28;20352;-78
2022/10/30 04:52:42;;;;;;;;;;;;;;;10.83;87.65;96737.09;4975827;28;19928;-78
2022/10/30 04:55:10;;;;;;;;;;;;;;;10.85;87.18;96740.31;4975618;28;19922;-77
2022/10/30 04:57:37;;;;;;;;;;;;;;;10.86;86.97;96741.94;4975382;28;20303;-78
2022/10/30 05:00:04;;;;;;;;;;;;;;;10.85;86.43;96734.88;4975766;28;19929;-78
2022/10/30 05:02:30;;;;;;;;;;;;;;;10.83;86.05;96737.09;4976151;28;19928;-78
2022/10/30 05:04:56;;;;;;;;;;;;;;;10.82;86.04;96739.03;4975847;28;19961;-78
2022/10/30 05:07:23;;;;;;;;;;;;;;;10.79;86.03;96739.63;4958316;28;20296;-78
2022/10/30 05:09:49;;;;;;;;;;;;;;;10.76;86.66;96725.84;4958476;28;20324;-77
2022/10/30 05:12:18;;;;;;;;;;;;;;;10.67;86.85;96721.13;4975640;28;20343;-79
2022/10/30 05:14:44;;;;;;;;;;;;;;;10.64;86.99;96724.47;4975614;28;19929;-78
2022/10/30 05:17:11;;;;;;;;;;;;;;;10.65;87.27;96715.19;4975471;28;20348;-79
2022/10/30 05:19:37;;;;;;;;;;;;;;;10.66;87.25;96716.81;4975514;28;19968;-78
2022/10/30 05:22:04;;;;;;;;;;;;;;;10.65;86.94;96720.66;4957078;28;19921;-78
2022/10/30 05:24:30;;;;;;;;;;;;;;;10.64;86.43;96719.03;4975549;28;20316;-78
2022/10/30 05:26:57;;;;;;;;;;;;;;;10.60;86.65;96718.06;4975540;28;20005;-79
2022/10/30 05:29:24;;;;;;;;;;;;;;;10.54;86.93;96713.81;4974715;28;20276;-78
2022/10/30 05:31:51;;;;;;;;;;;;;;;10.50;87.07;96722.94;4975019;28;19922;-79
2022/10/30 05:34:17;;;;;;;;;;;;;;;10.43;87.23;96712.44;4975096;28;19932;-76
2022/10/30 05:36:44;;;;;;;;;;;;;;;10.45;87.28;96711.03;4975061;28;19926;-78
2022/10/30 05:39:10;;;;;;;;;;;;;;;10.51;87.61;96709.00;4957145;28;19928;-78
2022/10/30 05:41:36;;;;;;;;;;;;;;;10.53;87.37;96709.50;4972784;28;19922;-78
2022/10/30 05:44:03;;;;;;;;;;;;;;;10.54;87.36;96713.81;4957367;28;20336;-78
2022/10/30 05:46:31;;;;;;;;;;;;;;;10.53;86.67;96706.75;4974768;28;20288;-78
2022/10/30 05:48:59;;;;;;;;;;;;;;;10.53;86.96;96712.22;4974583;28;19926;-79
2022/10/30 05:51:26;;;;;;;;;;;;;;;10.52;87.43;96707.88;4974390;28;19944;-79
2022/10/30 05:53:52;;;;;;;;;;;;;;;10.53;87.40;96711.41;4975266;28;19922;-78
2022/10/30 05:56:18;;;;;;;;;;;;;;;10.54;87.50;96705.66;4973620;28;19929;-78
2022/10/30 05:58:45;;;;;;;;;;;;;;;10.55;87.61;96701.84;4974332;28;19922;-78
2022/10/30 06:01:11;;;;;;;;;;;;;;;10.55;87.67;96699.09;4973986;28;19922;-77
2022/10/30 06:03:39;;;;;;;;;;;;;;;10.62;87.21;96704.91;4974425;28;19932;-80
2022/10/30 06:06:06;;;;;;;;;;;;;;;10.65;87.29;96693.41;4974426;28;19929;-77
2022/10/30 06:08:32;;;;;;;;;;;;;;;10.74;86.94;96700.81;4974718;28;19928;-79
2022/10/30 06:10:59;;;;;;;;;;;;;;;10.81;86.75;96695.75;4955376;28;19984;-78
2022/10/30 06:13:25;;;;;;;;;;;;;;;10.88;86.69;96704.28;4962680;28;20500;-78
2022/10/30 06:15:54;;;;;;;;;;;;;;;10.93;86.61;96709.63;4974288;28;19929;-79
2022/10/30 06:18:20;;;;;;;;;;;;;;;10.98;86.59;96710.28;4957261;28;19922;-78
2022/10/30 06:20:49;;;;;;;;;;;;;;;11.02;86.48;96713.19;4974598;28;19933;-78
2022/10/30 06:23:15;;;;;;;;;;;;;;;11.10;86.25;96708.91;4973850;28;20541;-78
2022/10/30 06:25:41;;;;;;;;;;;;;;;11.12;85.90;96712.94;4974231;28;19960;-79
2022/10/30 06:28:09;;;;;;;;;;;;;;;11.15;85.80;96717.75;4974522;28;19928;-78
2022/10/30 06:30:35;;;;;;;;;;;;;;;11.18;85.36;96719.84;4957261;28;20370;-81
2022/10/30 06:33:03;;;;;;;;;;;;;;;11.21;85.48;96719.22;4974369;28;19922;-78
2022/10/30 06:35:30;;;;;;;;;;;;;;;11.22;85.25;96729.03;4957871;28;19949;-79
2022/10/30 06:37:59;;;;;;;;;;;;;;;11.16;85.15;96724.00;4974849;28;19933;-79
2022/10/30 06:40:25;;;;;;;;;;;;;;;11.22;83.77;96729.03;4974406;28;20381;-77
2022/10/30 06:42:53;;;;;;;;;;;;;;;11.28;83.21;96726.16;4975943;28;19922;-78
2022/10/30 06:45:20;;;;;;;;;;;;;;;11.48;82.51;96731.06;4974535;28;20370;-78
2022/10/30 06:47:47;;;;;;;;;;;;;;;11.42;83.96;96732.31;4974831;28;20340;-78
2022/10/30 06:50:15;;;;;;;;;;;;;;;11.55;84.02;96725.16;4974718;28;20391;-78
2022/10/30 06:52:41;;;;;;;;;;;;;;;11.65;84.24;96728.41;4980695;28;19912;-79
2022/10/30 06:55:10;;;;;;;;;;;;;;;11.74;84.57;96722.97;4991983;28;19924;-78
2022/10/30 06:57:36;;;;;;;;;;;;;;;11.83;84.39;96721.09;4980836;28;19922;-78
2022/10/30 07:00:03;;;;;;;;;;;;;;;11.90;83.95;96721.47;4975535;28;19922;-78
2022/10/30 07:02:30;;;;;;;;;;;;;;;11.91;84.06;96725.00;4975755;28;19929;-78
2022/10/30 07:04:56;;;;;;;;;;;;;;;12.00;84.06;96720.34;4974653;28;20305;-78
2022/10/30 07:07:23;;;;;;;;;;;;;;;12.10;83.77;96717.31;4957046;28;20286;-78
2022/10/30 07:09:49;;;;;;;;;;;;;;;12.19;84.00;96720.06;4974403;28;19932;-80
2022/10/30 07:12:17;;;;;;;;;;;;;;;12.27;84.35;96722.81;4973859;28;19922;-78
2022/10/30 07:14:43;;;;;;;;;;;;;;;12.39;84.44;96726.84;4974845;28;19925;-77
2022/10/30 07:17:10;;;;;;;;;;;;;;;12.50;84.53;96726.19;4974292;28;19932;-78
2022/10/30 07:19:36;;;;;;;;;;;;;;;12.59;84.70;96726.19;4956539;28;19922;-78
2022/10/30 07:22:03;;;;;;;;;;;;;;;12.68;84.30;96724.25;4975733;28;19922;-78
2022/10/30 07:24:29;;;;;;;;;;;;;;;12.77;84.43;96729.72;4978074;28;20379;-77
2022/10/30 07:26:56;;;;;;;;;;;;;;;12.86;84.00;96735.19;4977670;28;19922;-78
2022/10/30 07:29:24;;;;;;;;;;;;;;;12.98;83.10;96730.66;4977121;28;19922;-77
2022/10/30 07:31:50;;;;;;;;;;;;;;;13.11;82.70;96737.09;4978249;28;19922;-78
2022/10/30 07:34:17;;;;;;;;;;;;;;;13.17;82.29;96735.78;4978257;28;19922;-78
2022/10/30 07:36:44;;;;;;;;;;;;;;;13.23;82.49;96739.97;4980446;28;19926;-78
2022/10/30 07:39:10;;;;;;;;;;;;;;;13.37;82.38;96744.44;4981419;28;19922;-78
2022/10/30 07:41:37;;;;;;;;;;;;;;;13.46;81.68;96748.75;4985630;28;19928;-79
2022/10/30 07:44:03;;;;;;;;;;;;;;;13.55;81.36;96749.53;4997036;28;19928;-79
2022/10/30 07:46:31;;;;;;;;;;;;;;;13.68;81.33;96745.00;4986431;28;19922;-78
2022/10/30 07:48:57;;;;;;;;;;;;;;;13.80;81.13;96752.50;4979883;28;19929;-78
2022/10/30 07:51:24;;;;;;;;;;;;;;;13.90;80.67;96743.13;4978948;28;19922;-77
2022/10/30 07:53:50;;;;;;;;;;;;;;;14.02;80.05;96745.94;4979126;28;19922;-79
2022/10/30 07:56:17;;;;;;;;;;;;;;;14.10;79.58;96745.09;4977681;28;20421;-78
2022/10/30 07:58:43;;;;;;;;;;;;;;;14.22;77.33;96758.06;4979175;28;19926;-78
2022/10/30 08:01:09;;;;;;;;;;;;;;;14.29;76.82;96759.16;4978617;28;19922;-78
2022/10/30 08:03:37;;;;;;;;;;;;;;;14.18;78.16;96757.94;4978937;28;19945;-77
2022/10/30 08:06:04;;;;;;;;;;;;;;;14.35;78.80;96763.31;4978079;28;19928;-78
2022/10/30 08:08:33;;;;;;;;;;;;;;;14.48;78.23;96757.94;4978259;28;20395;-79
2022/10/30 08:11:00;;;;;;;;;;;;;;;14.57;77.79;96759.50;4978569;28;19994;-79
2022/10/30 08:13:26;;;;;;;;;;;;;;;14.65;77.35;96763.28;4978080;28;20058;-78
2022/10/30 08:15:53;;;;;;;;;;;;;;;14.60;77.26;96764.28;4978885;28;19922;-78
2022/10/30 08:18:19;;;;;;;;;;;;;;;14.71;77.30;96769.38;4979689;28;19926;-78
2022/10/30 08:20:50;;;;;;;;;;;;;;;14.89;76.85;96757.13;4962379;28;19945;-78
2022/10/30 08:23:18;;;;;;;;;;;;;;;15.03;76.48;96759.56;4979564;28;19922;-77
2022/10/30 08:25:45;;;;;;;;;;;;;;;15.06;76.08;96764.41;4962243;28;19981;-78
2022/10/30 08:28:11;;;;;;;;;;;;;;;15.02;74.61;96763.47;4980189;28;19929;-78
2022/10/30 08:30:38;;;;;;;;;;;;;;;14.98;73.10;96757.03;4979388;28;19973;-77
2022/10/30 08:33:05;;;;;;;;;;;;;;;14.99;73.36;96759.47;4977335;28;19964;-79
2022/10/30 08:35:32;;;;;;;;;;;;;;;15.13;73.28;96759.16;4959877;28;20058;-77
2022/10/30 08:38:01;;;;;;;;;;;;;;;14.89;74.47;96746.16;4976923;28;19944;-77
2022/10/30 08:40:28;;;;;;;;;;;;;;;14.74;76.21;96753.06;4976477;28;19964;-78
2022/10/30 08:42:55;;;;;;;;;;;;;;;14.84;77.30;96752.66;4976993;28;19922;-78
2022/10/30 08:45:23;;;;;;;;;;;;;;;14.98;77.24;96751.56;4975974;28;20361;-78
2022/10/30 08:47:56;;;;;;;;;;;;;;;15.12;78.12;96760.31;4959249;28;19930;-77
2022/10/30 08:50:22;;;;;;;;;;;;;;;15.13;77.24;96759.16;4975751;28;19968;-78
2022/10/30 08:52:48;;;;;;;;;;;;;;;15.23;76.86;96761.47;4960731;28;19922;-78
2022/10/30 08:55:16;;;;;;;;;;;;;;;15.20;76.19;96753.94;4976525;28;19922;-78
2022/10/30 08:57:44;;;;;;;;;;;;;;;15.17;76.55;96754.59;4976359;28;19958;-78
2022/10/30 09:00:10;;;;;;;;;;;;;;;14.97;76.47;96755.44;4976379;28;20304;-79
2022/10/30 09:02:38;;;;;;;;;;;;;;;15.26;75.41;96758.06;4959095;28;19922;-78
2022/10/30 09:05:05;;;;;;;;;;;;;;;15.53;74.24;96747.63;4976309;28;19969;-78
2022/10/30 09:07:32;;;;;;;;;;;;;;;15.76;74.00;96750.75;4976717;28;20377;-78
2022/10/30 09:09:58;;;;;;;;;;;;;;;15.92;73.70;96746.19;4976496;28;19922;-78
2022/10/30 09:12:26;;;;;;;;;;;;;;;15.91;72.73;96748.16;4975822;28;19982;-78
2022/10/30 09:14:52;;;;;;;;;;;;;;;16.11;71.94;96737.41;4976705;28;20502;-78
2022/10/30 09:17:19;;;;;;;;;;;;;;;16.24;70.22;96741.75;4976287;28;19922;-77
2022/10/30 09:19:45;;;;;;;;;;;;;;;16.44;69.11;96746.31;4977254;28;19928;-78
2022/10/30 09:22:11;;;;;;;;;;;;;;;16.61;69.09;96744.44;4977135;28;19929;-78
2022/10/30 09:24:38;;;;;;;;;;;;;;;16.81;68.00;96749.00;4977528;28;19957;-78
2022/10/30 09:27:05;;;;;;;;;;;;;;;17.02;67.01;96743.31;4977962;28;19950;-78
2022/10/30 09:29:34;;;;;;;;;;;;;;;17.10;66.70;96750.59;4963036;28;19922;-78
2022/10/30 09:32:01;;;;;;;;;;;;;;;17.25;62.66;96754.53;4996007;28;19949;-78
2022/10/30 09:34:28;;;;;;;;;;;;;;;17.41;64.21;96749.06;5008185;28;20004;-79
2022/10/30 09:36:54;;;;;;;;;;;;;;;17.59;63.75;96760.53;4997947;28;19928;-80
2022/10/30 09:39:20;;;;;;;;;;;;;;;17.76;62.99;96753.94;4987585;28;19932;-79
2022/10/30 09:42:02;;;;;;;;;;;;;;;17.91;61.57;96753.16;4996973;28;19943;-78
2022/10/30 09:44:36;;;;;;;;;;;;;;;18.14;61.86;96747.78;4986213;28;19928;-79
2022/10/30 09:47:12;;;;;;;;;;;;;;;18.28;62.26;96750.09;4978200;28;19922;-78
2022/10/30 09:49:48;;;;;;;;;;;;;;;18.29;61.67;96754.44;4979299;28;19922;-79
2022/10/30 09:52:21;;;;;;;;;;;;;;;18.37;60.82;96745.16;4979298;28;20066;-79
2022/10/30 09:54:54;;;;;;;;;;;;;;;18.41;60.58;96748.81;4988681;28;19977;-80
2022/10/30 09:57:24;;;;;;;;;;;;;;;18.54;60.96;96752.28;4990157;28;19932;-80
2022/10/30 09:59:58;;;;;;;;;;;;;;;18.56;61.44;96745.22;4992030;28;19981;-79
2022/10/30 10:02:31;;;;;;;;;;;;;;;18.72;60.88;96739.69;4972389;28;19933;-80
2022/10/30 10:05:00;;;;;;;;;;;;;;;19.00;59.96;96745.81;4984617;28;19985;-80
2022/10/30 10:07:28;;;;;;;;;;;;;;;19.23;60.28;96748.63;4983495;28;19922;-80
2022/10/30 10:09:58;;;;;;;;;;;;;;;19.33;57.73;96744.47;4981946;28;19922;-80
2022/10/30 10:12:29;;;;;;;;;;;;;;;19.59;57.93;96743.00;4980032;28;19922;-79
2022/10/30 10:14:56;;;;;;;;;;;;;;;19.82;57.08;96738.28;4980589;28;19922;-79
2022/10/30 10:17:27;;;;;;;;;;;;;;;19.98;57.85;96738.94;4977493;28;19981;-79
2022/10/30 10:19:59;;;;;;;;;;;;;;;20.02;56.82;96745.34;4960525;28;19922;-79
2022/10/30 10:22:26;;;;;;;;;;;;;;;20.08;56.81;96743.06;4976381;28;19922;-79
2022/10/30 10:24:54;;;;;;;;;;;;;;;20.09;57.15;96739.13;4978126;28;19977;-79
2022/10/30 10:27:24;;;;;;;;;;;;;;;20.02;56.64;96741.78;4976774;28;19930;-79
2022/10/30 10:29:56;;;;;;;;;;;;;;;20.06;56.57;96746.19;4977258;28;19922;-79
2022/10/30 10:32:39;;;;;;;;;;;;;;;20.02;56.78;96739.81;4976448;28;20009;-79
2022/10/30 10:35:20;;;;;;;;;;;;;;;20.23;55.22;96738.56;4976147;28;19922;-79
2022/10/30 10:37:52;;;;;;;;;;;;;;;20.17;56.42;96735.31;4958017;28;19928;-80
2022/10/30 10:40:27;;;;;;;;;;;;;;;20.11;59.15;96736.00;4994916;28;19921;-79
2022/10/30 10:43:03;;;;;;;;;;;;;;;20.26;59.47;96732.28;4995525;28;19928;-79
2022/10/30 10:45:32;;;;;;;;;;;;;;;20.21;58.08;96732.63;4995832;28;19928;-79
2022/10/30 10:48:27;;;;;;;;;;;;;;;20.29;57.82;96731.53;4995426;28;19922;-79
2022/10/30 10:50:58;;;;;;;;;;;;;;;20.36;56.90;96731.66;4996021;28;19968;-78
2022/10/30 10:53:27;;;;;;;;;;;;;;;20.43;56.89;96717.94;4996067;28;19929;-78
2022/10/30 10:55:57;;;;;;;;;;;;;;;20.47;56.16;96716.03;4995390;28;19976;-79
2022/10/30 10:58:27;;;;;;;;;;;;;;;20.55;55.94;96728.78;4995162;28;19929;-79
2022/10/30 11:00:55;;;;;;;;;;;;;;;20.56;54.75;96726.81;4994455;28;19921;-79
2022/10/30 11:03:23;;;;;;;;;;;;;;;20.45;53.73;96718.34;4993978;28;19936;-79
2022/10/30 11:05:51;;;;;;;;;;;;;;;20.64;53.63;96716.66;4983957;28;20008;-78
2022/10/30 11:08:19;;;;;;;;;;;;;;;20.74;54.76;96724.31;4993685;28;19930;-79
2022/10/30 11:10:49;;;;;;;;;;;;;;;20.80;54.94;96722.81;4993989;28;19945;-79
2022/10/30 11:13:15;;;;;;;;;;;;;;;20.74;56.21;96718.78;4994831;28;19922;-79
2022/10/30 11:15:50;;;;;;;;;;;;;;;20.77;57.18;96712.47;4995596;28;19922;-79
2022/10/30 11:18:16;;;;;;;;;;;;;;;20.72;57.04;96704.50;4994089;28;19922;-81
2022/10/30 11:21:01;;;;;;;;;;;;;;;20.90;55.23;96713.84;4994961;28;19922;-79
2022/10/30 11:23:32;;;;;;;;;;;;;;;21.16;54.78;96706.63;4993333;28;19922;-78
2022/10/30 11:25:59;;;;;;;;;;;;;;;21.33;52.77;96706.06;4994576;28;19921;-78
2022/10/30 11:28:38;;;;;;;;;;;;;;;21.31;52.60;96702.88;4994596;28;19928;-79
2022/10/30 11:31:18;;;;;;;;;;;;;;;21.44;52.89;96695.09;4994162;28;19921;-79
2022/10/30 11:33:44;;;;;;;;;;;;;;;21.40;51.22;96703.34;4977346;28;19981;-79
2022/10/30 11:36:14;;;;;;;;;;;;;;;21.45;49.67;96700.22;4994440;28;19925;-79
2022/10/30 11:38:40;;;;;;;;;;;;;;;21.17;48.37;96694.38;4993580;28;19921;-78
2022/10/30 11:41:09;;;;;;;;;;;;;;;21.08;50.31;96689.91;4993245;28;19922;-78
2022/10/30 11:43:36;;;;;;;;;;;;;;;21.17;49.31;96699.91;4996446;28;19929;-77
2022/10/30 11:46:08;;;;;;;;;;;;;;;21.05;50.43;96695.44;4996406;28;19921;-78
2022/10/30 11:48:37;;;;;;;;;;;;;;;21.06;49.92;96681.22;4994774;28;19922;-78
2022/10/30 11:51:04;;;;;;;;;;;;;;;21.24;50.95;96692.47;4994793;28;20288;-77
2022/10/30 11:53:34;;;;;;;;;;;;;;;21.53;51.21;96698.34;4994486;28;20359;-78
2022/10/30 11:56:02;;;;;;;;;;;;;;;21.67;50.81;96694.94;4995298;28;19980;-77
2022/10/30 11:58:32;;;;;;;;;;;;;;;21.77;49.88;96692.25;4975309;28;19929;-78
2022/10/30 12:01:04;;;;;;;;;;;;;;;21.92;50.17;96687.59;4976001;28;20328;-78
2022/10/30 12:03:34;;;;;;;;;;;;;;;22.00;48.72;96689.25;4975052;28;19922;-79
2022/10/30 12:06:07;;;;;;;;;;;;;;;22.00;48.35;96683.72;4975243;28;19976;-79
2022/10/30 12:08:34;;;;;;;;;;;;;;;22.08;48.36;96674.28;4977089;28;20348;-79
2022/10/30 12:11:01;;;;;;;;;;;;;;;22.46;46.48;96677.72;4977020;28;20363;-78
2022/10/30 12:13:32;;;;;;;;;;;;;;;22.81;47.30;96671.56;5003092;28;20012;-78
2022/10/30 12:16:14;;;;;;;;;;;;;;;22.61;45.46;96665.50;4985133;28;19929;-78
2022/10/30 12:18:41;;;;;;;;;;;;;;;22.73;45.47;96664.38;5002808;28;19961;-78
2022/10/30 12:21:08;;;;;;;;;;;;;;;22.70;43.88;96664.34;5001656;28;19928;-78
2022/10/30 12:23:35;;;;;;;;;;;;;;;22.95;45.67;96667.25;5001737;28;19922;-79
2022/10/30 12:26:08;;;;;;;;;;;;;;;23.09;43.33;96659.78;5001562;28;19929;-78
2022/10/30 12:28:35;;;;;;;;;;;;;;;23.30;44.67;96658.25;4999211;28;20335;-78
2022/10/30 12:31:04;;;;;;;;;;;;;;;23.58;42.92;96655.50;4998093;28;20376;-78
2022/10/30 12:33:34;;;;;;;;;;;;;;;23.92;42.68;96655.16;4997975;28;19921;-79
2022/10/30 12:36:02;;;;;;;;;;;;;;;23.70;42.55;96654.34;4998290;28;19921;-78
2022/10/30 12:38:33;;;;;;;;;;;;;;;23.63;43.41;96649.56;4997641;28;19928;-79
2022/10/30 12:41:03;;;;;;;;;;;;;;;23.64;44.89;96651.16;4997223;28;19966;-80
2022/10/30 12:43:31;;;;;;;;;;;;;;;23.51;46.82;96655.50;4996931;28;20002;-78
2022/10/30 12:46:04;;;;;;;;;;;;;;;23.21;45.11;96649.47;4998016;28;19932;-79
2022/10/30 12:48:36;;;;;;;;;;;;;;;23.10;46.68;96641.91;4998972;28;19928;-78
2022/10/30 12:51:09;;;;;;;;;;;;;;;22.99;45.81;96631.97;4998345;28;19922;-78
2022/10/30 12:53:39;;;;;;;;;;;;;;;22.92;47.00;96641.88;5005660;28;19921;-79